Time;durP1;ratioP1;P1;durP2;ratioP2;P2;SDS_P1;SDS_P2;PMS_P1;PMS_P2;Temp;Humidity;BMP_temperature;BMP_pressure;BME280_temperature;BME280_humidity;BME280_pressure;Samples;Min_cycle;Max_cycle;Signal;HPM_P1;HPM_P2
2023/06/21 00:01:04;;;;;;;18.63;13.10;;;21.80;99.90;;;;;;4952987;28;20110;-74
2023/06/21 00:03:30;;;;;;;23.05;13.68;;;21.70;99.90;;;;;;4948629;28;20031;-77
2023/06/21 00:05:56;;;;;;;20.77;14.05;;;21.70;99.90;;;;;;4956087;28;20061;-78
2023/06/21 00:08:22;;;;;;;22.20;13.85;;;21.70;99.90;;;;;;4956130;28;20496;-77
2023/06/21 00:10:48;;;;;;;23.55;13.68;;;21.60;99.90;;;;;;4955492;29;20028;-78
2023/06/21 00:13:14;;;;;;;24.58;14.23;;;21.50;99.90;;;;;;4956082;29;20019;-78
2023/06/21 00:15:40;;;;;;;21.50;13.65;;;21.50;99.90;;;;;;4952111;29;21677;-78
2023/06/21 00:18:06;;;;;;;20.35;13.75;;;21.50;99.90;;;;;;4955885;29;20022;-76
2023/06/21 00:20:32;;;;;;;21.67;13.93;;;21.60;99.90;;;;;;4955456;29;20028;-77
2023/06/21 00:22:57;;;;;;;20.55;13.40;;;21.50;99.90;;;;;;4956380;28;20023;-77
2023/06/21 00:25:26;;;;;;;22.05;13.93;;;21.50;99.90;;;;;;4955522;28;20071;-79
2023/06/21 00:27:52;;;;;;;21.15;14.55;;;21.50;99.90;;;;;;4956501;28;20054;-78
2023/06/21 00:30:18;;;;;;;19.63;14.18;;;21.40;99.90;;;;;;4956122;28;20066;-75
2023/06/21 00:32:43;;;;;;;23.38;14.48;;;21.50;99.90;;;;;;4954174;28;20102;-78
2023/06/21 00:35:10;;;;;;;21.13;12.48;;;21.40;99.90;;;;;;4952687;28;20043;-78
2023/06/21 00:37:37;;;;;;;22.80;13.60;;;21.40;99.90;;;;;;4946242;28;20030;-78
2023/06/21 00:40:07;;;;;;;19.60;13.40;;;21.30;99.90;;;;;;4938044;28;20035;-78
2023/06/21 00:42:33;;;;;;;22.65;13.70;;;21.30;99.90;;;;;;4946154;29;20488;-78
2023/06/21 00:45:00;;;;;;;20.15;14.25;;;21.30;99.90;;;;;;4947029;28;20028;-78
2023/06/21 00:47:26;;;;;;;25.42;14.18;;;21.30;99.90;;;;;;4944564;29;20042;-78
2023/06/21 00:49:52;;;;;;;24.80;14.05;;;21.30;99.90;;;;;;4937634;29;20039;-78
2023/06/21 00:52:19;;;;;;;22.63;13.82;;;21.20;99.90;;;;;;4944264;28;20019;-78
2023/06/21 00:54:46;;;;;;;23.13;14.45;;;21.20;99.90;;;;;;4953740;28;20496;-77
2023/06/21 00:57:13;;;;;;;22.67;14.68;;;21.20;99.90;;;;;;4936465;29;20066;-77
2023/06/21 00:59:39;;;;;;;23.27;13.68;;;21.20;99.90;;;;;;4954201;29;20464;-78
2023/06/21 01:02:05;;;;;;;23.80;14.55;;;21.10;99.90;;;;;;4955073;28;20119;-76
2023/06/21 01:04:33;;;;;;;21.00;14.25;;;21.10;99.90;;;;;;4954767;29;20479;-77
2023/06/21 01:07:03;;;;;;;22.52;13.45;;;21.10;99.90;;;;;;4937338;29;20522;-79
2023/06/21 01:09:40;;;;;;;20.65;14.13;;;21.10;99.90;;;;;;4951062;29;20506;-80
2023/06/21 01:12:26;;;;;;;21.15;14.15;;;21.00;99.90;;;;;;4954667;29;20027;-78
2023/06/21 01:14:58;;;;;;;20.05;13.27;;;21.00;99.90;;;;;;4945009;28;20081;-75
2023/06/21 01:17:28;;;;;;;20.38;13.15;;;20.90;99.90;;;;;;4955165;28;20031;-76
2023/06/21 01:19:58;;;;;;;21.77;14.25;;;20.90;99.90;;;;;;4954443;28;20028;-79
2023/06/21 01:22:24;;;;;;;22.15;14.75;;;20.80;99.90;;;;;;4942799;29;20035;-73
2023/06/21 01:25:15;;;;;;;20.95;14.32;;;20.70;99.90;;;;;;4933635;29;20042;-78
2023/06/21 01:27:53;;;;;;;24.43;16.10;;;20.60;99.90;;;;;;4953475;28;20070;-75
2023/06/21 01:30:22;;;;;;;22.00;15.18;;;20.40;99.90;;;;;;4955183;28;20027;-78
2023/06/21 01:32:53;;;;;;;29.25;16.58;;;20.40;99.90;;;;;;4954667;28;20046;-78
2023/06/21 01:35:22;;;;;;;23.30;15.95;;;20.40;99.90;;;;;;4948643;28;20435;-76
2023/06/21 01:37:49;;;;;;;23.02;15.63;;;20.30;99.90;;;;;;4954749;28;20061;-78
2023/06/21 01:40:15;;;;;;;24.80;16.20;;;20.30;99.90;;;;;;4937217;28;20090;-77
2023/06/21 01:42:41;;;;;;;23.60;15.50;;;20.40;99.90;;;;;;4953312;28;20466;-78
2023/06/21 01:45:08;;;;;;;25.08;14.85;;;20.40;99.90;;;;;;4953687;28;20463;-78
2023/06/21 01:47:35;;;;;;;20.48;15.30;;;20.50;99.90;;;;;;4935649;28;20089;-75
2023/06/21 01:50:04;;;;;;;20.60;14.40;;;20.50;99.90;;;;;;4936293;29;20118;-76
2023/06/21 01:52:32;;;;;;;21.42;14.23;;;20.50;99.90;;;;;;4949669;28;20427;-75
2023/06/21 01:54:58;;;;;;;20.27;13.80;;;20.50;99.90;;;;;;4954266;29;20144;-77
2023/06/21 01:57:27;;;;;;;21.45;13.65;;;20.50;99.90;;;;;;4937715;28;20027;-78
2023/06/21 01:59:53;;;;;;;19.58;14.20;;;20.50;99.90;;;;;;4937809;29;20024;-76
2023/06/21 02:02:22;;;;;;;21.63;15.65;;;20.50;99.90;;;;;;4933016;28;20046;-77
2023/06/21 02:04:50;;;;;;;22.48;14.43;;;20.40;99.90;;;;;;4932594;29;20038;-77
2023/06/21 02:07:16;;;;;;;24.10;14.32;;;20.50;99.90;;;;;;4936540;29;20023;-76
2023/06/21 02:09:44;;;;;;;24.05;14.10;;;20.50;99.90;;;;;;4928412;29;20182;-77
2023/06/21 02:12:10;;;;;;;21.75;13.35;;;20.50;99.90;;;;;;4932946;29;20027;-77
2023/06/21 02:14:37;;;;;;;20.83;12.13;;;20.50;99.90;;;;;;4935376;29;20023;-74
2023/06/21 02:17:03;;;;;;;22.80;13.43;;;20.50;99.90;;;;;;4932040;28;20364;-75
2023/06/21 02:19:29;;;;;;;24.70;14.55;;;20.50;99.90;;;;;;4932521;29;20043;-76
2023/06/21 02:21:56;;;;;;;20.70;12.98;;;20.50;99.90;;;;;;4932223;29;20035;-78
2023/06/21 02:24:22;;;;;;;23.45;12.32;;;20.50;99.90;;;;;;4933511;29;20036;-78
2023/06/21 02:26:48;;;;;;;18.08;10.65;;;20.40;99.90;;;;;;4936024;29;20394;-77
2023/06/21 02:29:14;;;;;;;26.45;16.05;;;20.40;99.90;;;;;;4934319;29;20079;-77
2023/06/21 02:31:40;;;;;;;22.08;15.63;;;20.40;99.90;;;;;;4933734;29;20099;-77
2023/06/21 02:34:06;;;;;;;24.17;15.25;;;20.40;99.90;;;;;;4933014;29;20126;-77
2023/06/21 02:36:32;;;;;;;24.33;15.52;;;20.40;99.90;;;;;;4948666;29;20035;-74
2023/06/21 02:38:58;;;;;;;25.15;15.90;;;20.40;99.90;;;;;;4934925;29;20041;-77
2023/06/21 02:41:24;;;;;;;24.05;15.88;;;20.40;99.90;;;;;;4950516;28;20031;-75
2023/06/21 02:43:52;;;;;;;26.02;16.23;;;20.40;99.90;;;;;;4951062;28;20495;-74
2023/06/21 02:46:20;;;;;;;23.75;15.70;;;20.40;99.90;;;;;;4941704;28;20177;-76
2023/06/21 02:48:46;;;;;;;26.52;17.15;;;20.20;99.90;;;;;;4933474;29;20425;-77
2023/06/21 02:51:12;;;;;;;26.73;16.15;;;20.30;99.90;;;;;;4933431;29;20016;-74
2023/06/21 02:53:38;;;;;;;21.80;15.25;;;20.30;99.90;;;;;;4936307;29;20020;-77
2023/06/21 02:56:03;;;;;;;24.23;16.35;;;20.30;99.90;;;;;;4934242;29;20507;-77
2023/06/21 02:58:29;;;;;;;25.77;14.88;;;20.40;99.90;;;;;;4937614;29;20023;-76
2023/06/21 03:00:57;;;;;;;21.38;14.18;;;20.40;99.90;;;;;;4920270;29;20483;-77
2023/06/21 03:03:23;;;;;;;19.58;13.52;;;20.40;99.90;;;;;;4935805;29;20024;-77
2023/06/21 03:05:48;;;;;;;20.73;13.63;;;20.40;99.90;;;;;;4935802;29;20035;-75
2023/06/21 03:08:15;;;;;;;19.67;13.82;;;20.50;99.90;;;;;;4938920;29;20058;-77
2023/06/21 03:10:42;;;;;;;21.05;14.93;;;20.50;99.90;;;;;;4935815;29;20028;-77
2023/06/21 03:13:08;;;;;;;21.67;13.88;;;20.50;99.90;;;;;;4938258;29;20034;-73
2023/06/21 03:15:35;;;;;;;27.63;14.45;;;20.50;99.90;;;;;;4951920;28;20506;-75
2023/06/21 03:18:01;;;;;;;22.15;14.88;;;20.50;99.90;;;;;;4937398;29;20024;-77
2023/06/21 03:20:27;;;;;;;24.08;16.50;;;20.60;99.90;;;;;;4935255;29;20383;-76
2023/06/21 03:22:53;;;;;;;23.13;13.27;;;20.70;99.90;;;;;;4936593;29;20028;-77
2023/06/21 03:25:19;;;;;;;26.33;14.95;;;20.80;99.90;;;;;;4936107;29;20069;-76
2023/06/21 03:27:45;;;;;;;22.20;14.85;;;20.80;99.90;;;;;;4951400;28;20027;-78
2023/06/21 03:30:12;;;;;;;23.90;14.18;;;20.90;99.90;;;;;;4936702;29;20543;-77
2023/06/21 03:32:46;;;;;;;22.25;15.32;;;21.00;99.90;;;;;;4935794;29;20475;-76
2023/06/21 03:35:15;;;;;;;23.60;14.70;;;21.10;99.90;;;;;;4936070;29;20035;-77
2023/06/21 03:37:42;;;;;;;23.38;14.00;;;21.20;99.90;;;;;;4935477;28;20483;-77
2023/06/21 03:40:13;;;;;;;21.77;14.18;;;21.40;99.90;;;;;;4931770;29;20495;-77
2023/06/21 03:42:42;;;;;;;21.10;13.98;;;21.60;99.90;;;;;;4935675;29;20110;-77
2023/06/21 03:45:09;;;;;;;21.55;14.55;;;22.40;99.90;;;;;;4935094;29;20043;-78
2023/06/21 03:47:39;;;;;;;22.55;13.57;;;23.20;99.90;;;;;;4935590;29;20026;-77
2023/06/21 03:50:06;;;;;;;24.00;12.07;;;23.90;99.90;;;;;;4951196;29;20036;-74
2023/06/21 03:52:33;;;;;;;22.38;14.10;;;24.40;99.90;;;;;;4932634;29;20026;-77
2023/06/21 03:54:59;;;;;;;21.40;12.10;;;25.00;99.90;;;;;;4923966;29;20126;-79
2023/06/21 03:57:25;;;;;;;23.60;12.98;;;25.80;99.90;;;;;;4935359;29;20106;-78
2023/06/21 03:59:51;;;;;;;16.65;11.20;;;26.40;99.90;;;;;;4950820;29;20031;-79
2023/06/21 04:02:17;;;;;;;18.67;12.48;;;27.00;99.90;;;;;;4944930;29;20031;-78
2023/06/21 04:04:43;;;;;;;20.48;12.45;;;27.30;99.90;;;;;;4955597;28;20046;-80
2023/06/21 04:07:09;;;;;;;23.17;13.35;;;27.50;99.90;;;;;;4954898;28;20476;-76
2023/06/21 04:09:35;;;;;;;22.75;14.23;;;27.80;99.90;;;;;;4956418;28;20419;-78
2023/06/21 04:12:03;;;;;;;21.55;13.52;;;28.00;99.90;;;;;;4956564;28;20114;-77
2023/06/21 04:14:28;;;;;;;23.90;15.23;;;28.50;99.90;;;;;;4956667;28;20383;-78
2023/06/21 04:16:54;;;;;;;20.65;14.43;;;28.70;99.70;;;;;;4956410;28;20019;-78
2023/06/21 04:19:20;;;;;;;20.27;13.00;;;29.10;98.60;;;;;;4955636;29;20041;-76
2023/06/21 04:21:46;;;;;;;22.52;13.02;;;28.90;97.50;;;;;;4938603;29;20476;-78
2023/06/21 04:24:12;;;;;;;19.35;12.40;;;28.90;97.80;;;;;;4955218;29;20380;-78
2023/06/21 04:26:37;;;;;;;16.52;11.23;;;29.60;96.40;;;;;;4938810;28;20019;-78
2023/06/21 04:29:03;;;;;;;21.55;12.95;;;29.80;95.90;;;;;;4956065;28;20031;-76
2023/06/21 04:31:37;;;;;;;19.30;12.00;;;29.80;95.50;;;;;;4939742;28;20023;-79
2023/06/21 04:34:04;;;;;;;18.35;11.48;;;29.90;95.90;;;;;;4956523;28;20118;-79
2023/06/21 04:36:30;;;;;;;21.52;11.20;;;30.60;94.60;;;;;;4956419;28;20106;-77
2023/06/21 04:38:56;;;;;;;16.63;10.55;;;;;;;;;;4956043;28;20027;-79
2023/06/21 04:41:22;;;;;;;16.70;10.40;;;30.90;92.90;;;;;;4955962;28;20167;-79
2023/06/21 04:43:48;;;;;;;17.05;10.98;;;31.30;92.60;;;;;;4955741;28;20118;-74
2023/06/21 04:46:17;;;;;;;18.33;11.05;;;30.80;92.50;;;;;;4956154;29;20023;-75
2023/06/21 04:48:46;;;;;;;15.88;10.93;;;31.30;92.70;;;;;;4955749;28;20031;-79
2023/06/21 04:51:15;;;;;;;16.65;9.88;;;31.20;92.40;;;;;;4955824;29;20049;-80
2023/06/21 04:53:44;;;;;;;20.10;11.07;;;31.60;92.20;;;;;;4955717;28;20432;-79
2023/06/21 04:56:13;;;;;;;20.40;11.32;;;31.60;91.80;;;;;;4955120;28;20027;-74
2023/06/21 04:58:39;;;;;;;18.80;11.50;;;30.70;91.30;;;;;;4955664;28;20027;-79
2023/06/21 05:01:06;;;;;;;19.25;11.02;;;;;;;;;;4955063;28;20094;-79
2023/06/21 05:03:32;;;;;;;17.38;11.32;;;29.30;93.80;;;;;;4955656;28;20039;-79
2023/06/21 05:06:02;;;;;;;20.65;12.40;;;29.00;95.20;;;;;;4955641;28;20024;-78
2023/06/21 05:08:28;;;;;;;17.63;11.98;;;29.00;95.20;;;;;;4954862;28;20043;-78
2023/06/21 05:10:54;;;;;;;18.02;11.05;;;28.90;95.70;;;;;;4955733;28;20032;-77
2023/06/21 05:13:20;;;;;;;23.23;12.32;;;28.60;96.70;;;;;;4954389;28;20114;-77
2023/06/21 05:15:46;;;;;;;19.67;11.70;;;28.40;97.90;;;;;;4955606;29;20062;-74
2023/06/21 05:18:11;;;;;;;18.38;12.30;;;28.30;97.70;;;;;;4954689;28;20484;-74
2023/06/21 05:20:37;;;;;;;21.98;13.48;;;28.30;98.70;;;;;;4955579;28;20082;-77
2023/06/21 05:23:03;;;;;;;20.95;14.02;;;28.40;97.70;;;;;;4955076;28;20369;-77
2023/06/21 05:25:30;;;;;;;19.40;13.95;;;28.40;99.00;;;;;;4955259;28;20043;-76
2023/06/21 05:27:56;;;;;;;21.67;14.65;;;28.40;99.10;;;;;;4954761;28;20042;-77
2023/06/21 05:30:22;;;;;;;23.80;15.27;;;28.50;99.20;;;;;;4955211;29;20383;-77
2023/06/21 05:32:48;;;;;;;22.70;14.43;;;28.60;99.90;;;;;;4955211;28;20027;-77
2023/06/21 05:35:14;;;;;;;19.23;13.27;;;28.70;99.90;;;;;;4954870;28;20074;-75
2023/06/21 05:37:40;;;;;;;17.90;12.32;;;28.70;99.00;;;;;;4955255;28;20034;-77
2023/06/21 05:40:08;;;;;;;17.50;12.05;;;28.70;99.60;;;;;;4954814;28;20039;-78
2023/06/21 05:42:34;;;;;;;20.27;11.73;;;28.50;99.60;;;;;;4954053;28;20062;-77
2023/06/21 05:45:00;;;;;;;24.85;12.75;;;28.50;99.00;;;;;;4954495;28;20043;-77
2023/06/21 05:47:26;;;;;;;19.40;12.27;;;28.70;99.80;;;;;;4954210;28;20530;-77
2023/06/21 05:49:52;;;;;;;23.38;14.57;;;28.90;99.90;;;;;;4953581;28;20027;-77
2023/06/21 05:52:18;;;;;;;20.45;14.52;;;28.90;99.90;;;;;;4954315;28;20019;-79
2023/06/21 05:54:44;;;;;;;23.55;14.77;;;28.60;99.90;;;;;;4954237;28;20031;-78
2023/06/21 05:57:11;;;;;;;25.08;13.95;;;28.80;99.90;;;;;;4953720;28;20505;-75
2023/06/21 05:59:37;;;;;;;18.00;13.85;;;28.80;99.90;;;;;;4954505;28;20034;-78
2023/06/21 06:02:04;;;;;;;18.92;13.00;;;28.80;99.90;;;;;;4953891;28;20484;-76
2023/06/21 06:04:30;;;;;;;21.55;12.10;;;29.10;99.90;;;;;;4954262;28;20039;-78
2023/06/21 06:06:56;;;;;;;21.95;12.63;;;29.20;99.90;;;;;;4954010;28;20380;-78
2023/06/21 06:09:23;;;;;;;16.88;10.98;;;29.40;99.20;;;;;;4954548;28;20467;-78
2023/06/21 06:11:50;;;;;;;20.70;13.18;;;29.40;99.30;;;;;;4953503;28;20019;-77
2023/06/21 06:14:16;;;;;;;19.33;12.18;;;29.40;99.90;;;;;;4953954;28;20047;-78
2023/06/21 06:16:42;;;;;;;19.02;13.15;;;29.60;98.60;;;;;;4953661;28;20575;-78
2023/06/21 06:19:08;;;;;;;17.15;12.15;;;29.60;99.90;;;;;;4954182;28;20106;-77
2023/06/21 06:21:34;;;;;;;21.92;13.65;;;;;;;;;;4952938;28;20432;-79
2023/06/21 06:24:00;;;;;;;21.27;13.43;;;29.90;99.20;;;;;;4953810;28;20427;-78
2023/06/21 06:26:26;;;;;;;21.27;12.82;;;30.10;98.80;;;;;;4953408;28;20023;-79
2023/06/21 06:28:53;;;;;;;19.58;13.05;;;30.10;99.30;;;;;;4953568;28;20538;-78
2023/06/21 06:31:23;;;;;;;20.92;13.43;;;29.90;99.90;;;;;;4953078;28;20090;-79
2023/06/21 06:33:49;;;;;;;20.92;13.48;;;30.00;98.90;;;;;;4946422;28;20027;-77
2023/06/21 06:36:15;;;;;;;19.10;13.80;;;30.20;99.30;;;;;;4954022;28;20023;-79
2023/06/21 06:38:41;;;;;;;20.38;12.63;;;30.30;98.10;;;;;;4953320;28;20475;-75
2023/06/21 06:41:07;;;;;;;22.35;13.02;;;30.20;99.60;;;;;;4953055;28;20046;-75
2023/06/21 06:43:33;;;;;;;20.67;13.38;;;30.40;99.00;;;;;;4953191;29;20034;-74
2023/06/21 06:46:00;;;;;;;18.40;13.27;;;30.30;99.40;;;;;;4953439;28;20043;-74
2023/06/21 06:48:26;;;;;;;17.77;13.50;;;30.30;95.80;;;;;;4947768;28;20030;-78
2023/06/21 06:50:52;;;;;;;19.85;13.00;;;30.40;98.10;;;;;;4953485;28;20055;-79
2023/06/21 06:53:18;;;;;;;20.90;13.77;;;30.60;96.70;;;;;;4953885;28;20526;-74
2023/06/21 06:55:44;;;;;;;19.30;12.90;;;30.80;96.90;;;;;;4953584;28;20028;-78
2023/06/21 06:58:10;;;;;;;20.00;11.63;;;30.90;96.40;;;;;;4953484;29;20434;-75
2023/06/21 07:00:36;;;;;;;27.88;16.17;;;30.90;94.70;;;;;;4952898;28;20031;-76
2023/06/21 07:03:02;;;;;;;24.17;14.27;;;30.70;97.80;;;;;;4953336;28;20372;-78
2023/06/21 07:05:28;;;;;;;28.65;15.02;;;31.00;96.00;;;;;;4953321;28;20491;-79
2023/06/21 07:07:55;;;;;;;28.13;14.77;;;31.20;96.90;;;;;;4953820;28;20038;-79
2023/06/21 07:10:20;;;;;;;25.20;14.70;;;31.10;97.40;;;;;;4953217;28;20509;-79
2023/06/21 07:12:46;;;;;;;24.45;15.35;;;31.10;97.50;;;;;;4952968;29;20066;-81
2023/06/21 07:15:12;;;;;;;24.42;14.90;;;30.70;95.90;;;;;;4953108;28;20035;-79
2023/06/21 07:17:38;;;;;;;29.95;15.18;;;31.30;96.50;;;;;;4952576;29;20034;-80
2023/06/21 07:20:06;;;;;;;22.58;14.55;;;31.20;96.30;;;;;;4952793;28;20032;-78
2023/06/21 07:22:35;;;;;;;29.08;14.18;;;31.30;97.00;;;;;;4953389;28;20028;-78
2023/06/21 07:25:01;;;;;;;22.27;13.82;;;31.20;95.40;;;;;;4954154;28;20090;-76
2023/06/21 07:27:27;;;;;;;20.55;12.38;;;30.90;94.60;;;;;;4952727;28;20031;-79
2023/06/21 07:29:53;;;;;;;21.08;12.95;;;31.30;95.10;;;;;;4952970;28;20029;-80
2023/06/21 07:32:19;;;;;;;17.13;11.82;;;31.40;92.20;;;;;;4954074;28;20110;-80
2023/06/21 07:34:45;;;;;;;18.38;12.90;;;31.70;92.40;;;;;;4952745;28;20367;-79
2023/06/21 07:37:11;;;;;;;18.50;12.10;;;31.70;92.00;;;;;;4953371;28;20041;-77
2023/06/21 07:39:37;;;;;;;21.80;12.95;;;31.50;92.30;;;;;;4952828;28;20917;-79
2023/06/21 07:42:04;;;;;;;18.33;11.88;;;31.80;91.60;;;;;;4955036;28;20031;-77
2023/06/21 07:44:33;;;;;;;18.95;11.40;;;31.90;92.10;;;;;;4956174;28;20399;-74
2023/06/21 07:46:59;;;;;;;19.85;11.73;;;32.30;90.80;;;;;;4956292;29;20031;-76
2023/06/21 07:49:24;;;;;;;19.08;10.13;;;32.50;90.90;;;;;;4956551;28;20038;-81
2023/06/21 07:51:50;;;;;;;16.35;9.77;;;32.70;89.80;;;;;;4956606;28;20034;-75
2023/06/21 07:54:17;;;;;;;14.55;9.90;;;32.50;86.60;;;;;;4956330;28;20036;-81
2023/06/21 07:56:42;;;;;;;20.05;10.13;;;32.60;86.80;;;;;;4957133;28;20081;-81
2023/06/21 07:59:08;;;;;;;16.63;9.13;;;32.70;86.50;;;;;;4956445;28;20118;-83
2023/06/21 08:01:35;;;;;;;17.27;8.45;;;32.70;86.40;;;;;;4958647;28;20030;-74
2023/06/21 08:04:01;;;;;;;14.98;8.55;;;32.00;83.20;;;;;;4955753;28;20078;-81
2023/06/21 08:06:27;;;;;;;15.63;10.93;;;31.90;84.40;;;;;;4956221;28;20031;-81
2023/06/21 08:08:53;;;;;;;18.00;9.88;;;31.30;82.90;;;;;;4956616;28;20078;-79
2023/06/21 08:11:19;;;;;;;12.15;8.50;;;31.80;84.60;;;;;;4955838;28;20110;-80
2023/06/21 08:13:45;;;;;;;14.77;8.50;;;31.80;85.00;;;;;;4956391;28;20531;-79
2023/06/21 08:16:11;;;;;;;13.13;9.32;;;31.90;84.20;;;;;;4956035;28;20114;-76
2023/06/21 08:18:37;;;;;;;14.68;8.98;;;32.00;83.80;;;;;;4956528;29;20150;-79
2023/06/21 08:21:07;;;;;;;15.80;9.43;;;32.30;84.90;;;;;;4955457;28;20075;-80
2023/06/21 08:23:33;;;;;;;19.50;10.53;;;32.20;86.20;;;;;;4956029;28;20031;-83
2023/06/21 08:25:59;;;;;;;23.65;10.60;;;31.70;86.10;;;;;;4956240;28;20038;-77
2023/06/21 08:28:25;;;;;;;15.65;10.35;;;31.70;83.70;;;;;;4956487;28;20059;-81
2023/06/21 08:30:51;;;;;;;17.90;12.25;;;31.50;87.00;;;;;;4956094;28;20032;-82
2023/06/21 08:33:16;;;;;;;21.85;11.38;;;32.00;85.70;;;;;;4956455;28;20031;-82
2023/06/21 08:35:42;;;;;;;19.05;10.98;;;32.00;86.00;;;;;;4955797;28;20446;-80
2023/06/21 08:38:08;;;;;;;19.20;11.45;;;31.90;85.60;;;;;;4955470;28;20118;-74
2023/06/21 08:40:37;;;;;;;15.05;10.75;;;32.10;86.70;;;;;;4956150;28;20031;-76
2023/06/21 08:43:04;;;;;;;20.05;10.90;;;32.30;87.70;;;;;;4955852;28;20114;-73
2023/06/21 08:45:30;;;;;;;21.02;12.02;;;32.00;88.60;;;;;;4955297;28;20479;-79
2023/06/21 08:48:03;;;;;;;17.23;9.90;;;32.10;86.40;;;;;;4955749;28;20483;-81
2023/06/21 08:50:29;;;;;;;17.80;10.10;;;31.90;88.30;;;;;;4955404;29;20042;-81
2023/06/21 08:53:00;;;;;;;18.50;10.30;;;32.20;88.90;;;;;;4955183;28;20030;-76
2023/06/21 08:55:28;;;;;;;15.57;9.48;;;31.70;86.00;;;;;;4955630;28;20039;-82
2023/06/21 08:58:03;;;;;;;15.57;9.75;;;32.10;84.40;;;;;;4955189;28;20019;-81
2023/06/21 09:00:36;;;;;;;15.75;9.73;;;32.10;84.20;;;;;;4957045;28;20053;-79
2023/06/21 09:03:08;;;;;;;12.38;8.68;;;32.30;85.50;;;;;;4955186;28;20039;-81
2023/06/21 09:05:40;;;;;;;14.75;9.00;;;32.30;84.80;;;;;;4947269;29;20432;-80
2023/06/21 09:08:07;;;;;;;14.88;9.25;;;32.50;85.90;;;;;;4946352;28;20483;-82
2023/06/21 09:10:34;;;;;;;14.05;8.93;;;32.50;83.50;;;;;;4951523;28;20041;-75
2023/06/21 09:13:03;;;;;;;15.40;9.75;;;32.90;87.40;;;;;;4956594;28;20031;-75
2023/06/21 09:15:29;;;;;;;14.70;9.00;;;32.90;85.20;;;;;;4935403;29;20047;-81
2023/06/21 09:17:56;;;;;;;13.15;9.07;;;31.80;79.70;;;;;;4937712;29;20372;-82
2023/06/21 09:20:28;;;;;;;19.58;9.65;;;32.10;82.40;;;;;;4936190;29;20082;-77
2023/06/21 09:22:56;;;;;;;26.88;9.35;;;32.20;82.60;;;;;;4940669;29;20052;-80
2023/06/21 09:25:22;;;;;;;14.45;7.80;;;32.40;84.00;;;;;;4945964;29;20503;-80
2023/06/21 09:27:48;;;;;;;12.82;7.90;;;32.50;82.20;;;;;;4951707;28;20094;-81
2023/06/21 09:30:15;;;;;;;11.68;7.38;;;32.40;78.30;;;;;;4951301;28;20464;-80
2023/06/21 09:32:41;;;;;;;11.40;7.38;;;32.20;77.40;;;;;;4944684;29;20020;-82
2023/06/21 09:35:08;;;;;;;11.60;7.68;;;32.00;77.90;;;;;;4943565;28;20036;-80
2023/06/21 09:37:36;;;;;;;10.90;7.20;;;32.20;79.80;;;;;;4953927;29;20035;-82
2023/06/21 09:40:05;;;;;;;12.23;8.55;;;32.00;78.10;;;;;;4955498;28;20041;-76
2023/06/21 09:42:37;;;;;;;13.50;9.18;;;31.90;79.60;;;;;;4955307;28;20082;-82
2023/06/21 09:45:10;;;;;;;21.33;9.77;;;32.40;83.50;;;;;;4955048;28;20454;-82
2023/06/21 09:47:39;;;;;;;13.07;9.00;;;32.20;83.00;;;;;;4954942;28;20464;-78
2023/06/21 09:50:06;;;;;;;17.98;10.05;;;32.00;81.20;;;;;;4956092;28;20031;-82
2023/06/21 09:52:32;;;;;;;18.55;9.18;;;32.20;82.10;;;;;;4955252;28;20015;-74
2023/06/21 09:54:59;;;;;;;13.85;9.77;;;32.10;82.60;;;;;;4954535;28;20353;-74
2023/06/21 09:57:29;;;;;;;16.90;9.18;;;32.00;84.60;;;;;;4954635;28;20035;-82
2023/06/21 09:59:57;;;;;;;14.35;9.45;;;31.80;85.10;;;;;;4955049;28;20035;-83
2023/06/21 10:02:23;;;;;;;14.38;9.77;;;31.70;84.60;;;;;;4955595;28;20028;-84
2023/06/21 10:04:54;;;;;;;15.05;10.20;;;31.70;83.70;;;;;;4954624;28;20051;-74
2023/06/21 10:07:21;;;;;;;15.30;10.50;;;31.40;84.70;;;;;;4954934;28;20043;-83
2023/06/21 10:09:48;;;;;;;14.93;9.52;;;31.40;86.70;;;;;;4955041;29;20051;-83
2023/06/21 10:12:15;;;;;;;18.10;10.02;;;31.10;84.10;;;;;;4955224;29;20031;-82
2023/06/21 10:14:42;;;;;;;14.30;10.27;;;30.90;85.50;;;;;;4954593;28;20030;-74
2023/06/21 10:17:08;;;;;;;16.10;9.50;;;30.90;87.90;;;;;;4954302;28;20032;-82
2023/06/21 10:19:35;;;;;;;13.93;9.93;;;31.10;87.60;;;;;;4953575;28;20106;-72
2023/06/21 10:22:07;;;;;;;14.20;9.73;;;31.20;87.70;;;;;;4955513;29;20076;-74
2023/06/21 10:24:45;;;;;;;19.52;10.45;;;31.30;88.70;;;;;;4955960;28;20407;-80
2023/06/21 10:27:11;;;;;;;15.35;10.13;;;31.40;88.30;;;;;;4954909;29;20123;-80
2023/06/21 10:29:38;;;;;;;14.23;9.85;;;31.00;85.50;;;;;;4954306;28;20019;-77
2023/06/21 10:32:05;;;;;;;15.98;9.07;;;31.20;87.60;;;;;;4954713;29;20066;-80
2023/06/21 10:34:41;;;;;;;16.73;9.95;;;31.30;87.90;;;;;;4954544;29;20079;-85
2023/06/21 10:37:17;;;;;;;14.15;10.20;;;31.30;86.60;;;;;;4950467;29;20387;-81
2023/06/21 10:39:47;;;;;;;13.88;8.73;;;31.40;86.60;;;;;;4951188;29;20397;-81
2023/06/21 10:42:13;;;;;;;15.43;9.05;;;31.50;85.80;;;;;;4955829;28;20027;-81
2023/06/21 10:44:40;;;;;;;22.10;10.63;;;31.60;85.70;;;;;;4954739;29;20438;-79
2023/06/21 10:47:06;;;;;;;20.20;9.50;;;31.70;84.80;;;;;;4954317;28;20386;-84
2023/06/21 10:49:32;;;;;;;14.55;9.07;;;31.90;86.40;;;;;;4954148;29;20033;-82
2023/06/21 10:51:58;;;;;;;13.85;8.23;;;32.00;87.50;;;;;;4956026;29;20023;-72
2023/06/21 10:54:26;;;;;;;11.57;9.00;;;32.00;81.90;;;;;;4955504;29;20085;-80
2023/06/21 10:56:53;;;;;;;14.98;8.77;;;32.20;82.00;;;;;;4955690;29;20034;-74
2023/06/21 10:59:23;;;;;;;16.40;9.35;;;32.10;82.50;;;;;;4951578;28;20039;-79
2023/06/21 11:01:50;;;;;;;20.47;9.23;;;32.40;87.10;;;;;;4935941;29;20419;-83
2023/06/21 11:04:16;;;;;;;14.90;9.20;;;32.60;86.80;;;;;;4949132;29;20434;-81
2023/06/21 11:06:43;;;;;;;14.13;9.55;;;32.60;82.00;;;;;;4951627;29;20027;-78
2023/06/21 11:09:11;;;;;;;13.73;9.07;;;32.70;82.60;;;;;;4951453;28;20047;-72
2023/06/21 11:11:43;;;;;;;16.48;9.05;;;32.50;78.70;;;;;;4953486;28;20455;-81
2023/06/21 11:14:09;;;;;;;11.80;7.93;;;32.60;81.90;;;;;;4952926;28;20117;-73
2023/06/21 11:16:38;;;;;;;15.73;7.85;;;32.50;80.20;;;;;;4954754;28;20027;-75
2023/06/21 11:19:08;;;;;;;17.33;8.95;;;32.60;82.20;;;;;;4937328;29;20049;-73
2023/06/21 11:21:37;;;;;;;26.65;9.43;;;32.60;79.90;;;;;;4937750;29;20023;-73
2023/06/21 11:24:10;;;;;;;13.07;8.60;;;32.50;79.60;;;;;;4943743;28;20040;-81
2023/06/21 11:27:02;;;;;;;13.07;7.82;;;32.60;83.10;;;;;;4936568;29;20040;-81
2023/06/21 11:29:37;;;;;;;11.63;8.00;;;32.20;78.00;;;;;;4937714;29;20024;-75
2023/06/21 11:32:15;;;;;;;13.48;8.50;;;32.40;79.90;;;;;;4938130;29;20044;-77
2023/06/21 11:34:57;;;;;;;14.30;8.45;;;32.50;78.90;;;;;;4945550;28;20490;-72
2023/06/21 11:37:31;;;;;;;13.85;8.55;;;32.40;77.00;;;;;;4954714;28;20412;-83
2023/06/21 11:40:03;;;;;;;11.95;7.53;;;32.30;78.00;;;;;;4949280;29;20070;-79
2023/06/21 11:42:52;;;;;;;11.80;8.07;;;32.30;78.60;;;;;;4946400;29;20725;-83
2023/06/21 11:45:18;;;;;;;12.60;8.57;;;32.30;77.70;;;;;;4879265;29;20049;-73
2023/06/21 11:48:03;;;;;;;13.45;8.15;;;32.30;78.60;;;;;;4879454;29;20029;-75
2023/06/21 11:50:33;;;;;;;13.73;7.38;;;32.30;77.40;;;;;;4879425;29;20135;-80
2023/06/21 11:53:18;;;;;;;11.83;8.30;;;32.20;78.30;;;;;;4879507;29;20128;-73
2023/06/21 11:55:46;;;;;;;13.27;7.60;;;32.50;78.20;;;;;;4879157;29;20037;-82
2023/06/21 11:58:11;;;;;;;12.18;7.53;;;32.40;77.50;;;;;;4879211;29;20064;-84
2023/06/21 12:00:37;;;;;;;16.20;8.77;;;32.40;79.80;;;;;;4879722;29;20116;-73
2023/06/21 12:03:03;;;;;;;12.38;7.63;;;32.50;77.00;;;;;;4878993;29;20049;-84
2023/06/21 12:05:46;;;;;;;13.90;8.10;;;32.70;78.10;;;;;;4879101;29;20057;-82
2023/06/21 12:08:12;;;;;;;12.93;8.65;;;32.80;77.50;;;;;;4878550;29;20053;-80
2023/06/21 12:10:38;;;;;;;12.13;8.43;;;32.60;76.60;;;;;;4878982;29;20191;-82
2023/06/21 12:13:05;;;;;;;14.60;8.55;;;32.80;79.20;;;;;;4879290;29;20112;-72
2023/06/21 12:15:31;;;;;;;17.40;9.25;;;32.50;75.40;;;;;;4878902;29;20044;-81
2023/06/21 12:17:58;;;;;;;11.48;8.00;;;32.30;76.50;;;;;;4876472;29;20064;-83
2023/06/21 12:20:24;;;;;;;11.68;8.43;;;32.40;79.60;;;;;;4877831;29;20036;-74
2023/06/21 12:22:50;;;;;;;13.50;7.90;;;32.20;77.50;;;;;;4937404;28;20483;-77
2023/06/21 12:25:16;;;;;;;15.07;8.18;;;32.10;78.90;;;;;;4955646;29;20039;-78
2023/06/21 12:28:13;;;;;;;11.40;8.00;;;32.20;78.60;;;;;;4957383;28;20035;-83
2023/06/21 12:30:53;;;;;;;12.05;7.88;;;32.30;79.30;;;;;;4877106;29;20045;-73
2023/06/21 12:33:29;;;;;;;12.80;8.60;;;32.30;77.90;;;;;;4877272;29;20045;-83